Time;durP1;ratioP1;P1;durP2;ratioP2;P2;SDS_P1;SDS_P2;PMS_P1;PMS_P2;Temp;Humidity;BMP_temperature;BMP_pressure;BME280_temperature;BME280_humidity;BME280_pressure;Samples;Min_cycle;Max_cycle;Signal;HPM_P1;HPM_P2
2022/02/13 00:02:01;;;;;;;1.63;1.47;;;12.50;99.90;;;;;;6322745;22;20515;-93
2022/02/13 00:04:33;;;;;;;2.37;1.40;;;12.40;99.90;;;;;;6329121;22;20186;-93
2022/02/13 00:07:08;;;;;;;3.20;1.63;;;12.30;99.90;;;;;;6325809;22;20189;-92
2022/02/13 00:09:40;;;;;;;3.27;1.60;;;12.20;99.90;;;;;;6324646;22;20177;-93
2022/02/13 00:12:14;;;;;;;2.10;1.67;;;12.00;99.90;;;;;;6324884;22;20177;-93
2022/02/13 00:14:46;;;;;;;1.77;1.53;;;11.90;99.90;;;;;;6329417;22;20174;-93
2022/02/13 00:17:18;;;;;;;4.17;1.73;;;11.90;99.90;;;;;;6326800;22;20181;-93
2022/02/13 00:19:49;;;;;;;1.37;1.27;;;11.80;99.90;;;;;;6322517;22;20181;-93
2022/02/13 00:22:24;;;;;;;2.60;1.53;;;11.70;99.90;;;;;;6325165;22;20175;-93
2022/02/13 00:24:56;;;;;;;2.90;1.50;;;11.70;99.90;;;;;;6323685;22;20173;-92
2022/02/13 00:27:27;;;;;;;1.67;1.40;;;11.60;99.90;;;;;;6322403;22;20190;-92
2022/02/13 00:29:59;;;;;;;1.90;1.40;;;11.60;99.90;;;;;;6324574;22;20213;-93
2022/02/13 00:32:30;;;;;;;2.57;1.80;;;11.50;99.90;;;;;;6328014;22;20151;-93
2022/02/13 00:35:02;;;;;;;2.73;1.50;;;11.50;99.90;;;;;;6324672;22;20235;-93
2022/02/13 00:37:35;;;;;;;2.53;1.33;;;11.40;99.90;;;;;;6298524;22;20171;-93
2022/02/13 00:40:08;;;;;;;2.20;1.83;;;11.30;99.90;;;;;;6320052;22;20228;-92
2022/02/13 00:42:41;;;;;;;2.63;1.70;;;11.20;99.90;;;;;;6328237;22;20174;-93
2022/02/13 00:45:12;;;;;;;2.80;1.70;;;11.10;99.90;;;;;;6320982;22;20385;-93
2022/02/13 00:47:45;;;;;;;3.37;1.90;;;11.00;99.90;;;;;;6299877;22;20181;-92
2022/02/13 00:50:17;;;;;;;3.37;1.97;;;10.90;99.90;;;;;;6329513;22;20190;-92
2022/02/13 00:52:50;;;;;;;3.83;2.20;;;10.80;99.90;;;;;;6328666;22;20201;-92
2022/02/13 00:55:23;;;;;;;4.17;2.20;;;10.70;99.90;;;;;;6328106;22;20232;-92
2022/02/13 00:57:55;;;;;;;2.17;1.60;;;10.60;99.90;;;;;;6328025;22;20169;-92
2022/02/13 01:00:27;;;;;;;2.17;1.50;;;10.50;99.90;;;;;;6291658;22;20513;-92
2022/02/13 01:02:59;;;;;;;2.33;1.60;;;10.50;99.90;;;;;;6319336;22;20257;-92
2022/02/13 01:05:31;;;;;;;2.97;1.80;;;10.40;99.90;;;;;;6322540;22;20193;-92
2022/02/13 01:08:05;;;;;;;2.77;1.60;;;10.30;99.90;;;;;;6326914;22;20321;-92
2022/02/13 01:10:37;;;;;;;4.53;1.77;;;10.20;99.90;;;;;;6300749;22;20167;-93
2022/02/13 01:13:08;;;;;;;2.80;1.60;;;10.10;99.90;;;;;;6322676;22;20151;-92
2022/02/13 01:15:39;;;;;;;3.60;1.60;;;10.00;99.90;;;;;;6328052;22;20166;-92
2022/02/13 01:18:15;;;;;;;3.00;1.50;;;9.90;99.90;;;;;;6325459;22;20173;-93
2022/02/13 01:20:47;;;;;;;3.63;1.73;;;9.70;99.90;;;;;;6327257;22;20198;-92
2022/02/13 01:23:22;;;;;;;3.87;2.07;;;9.60;99.90;;;;;;6298665;22;20601;-93
2022/02/13 01:25:53;;;;;;;3.00;1.90;;;9.50;99.90;;;;;;6321616;22;20174;-92
2022/02/13 01:28:28;;;;;;;3.73;2.07;;;9.40;99.90;;;;;;6330506;22;20174;-96
2022/02/13 01:31:03;;;;;;;2.47;1.80;;;9.30;99.90;;;;;;6335058;22;20154;-95
2022/02/13 01:33:35;;;;;;;3.63;2.10;;;9.20;99.90;;;;;;6332463;22;20220;-94
2022/02/13 01:36:06;;;;;;;4.67;2.20;;;9.10;99.90;;;;;;6332439;22;20166;-93
2022/02/13 01:38:41;;;;;;;4.43;2.53;;;9.00;99.90;;;;;;6332656;22;20174;-94
2022/02/13 01:41:12;;;;;;;3.07;1.90;;;9.00;99.90;;;;;;6329508;22;20196;-95
2022/02/13 01:43:45;;;;;;;2.47;1.97;;;9.00;99.90;;;;;;6333429;22;20189;-95
2022/02/13 01:46:18;;;;;;;2.90;1.70;;;9.00;99.90;;;;;;6332584;22;20171;-95
2022/02/13 01:48:49;;;;;;;3.00;2.13;;;8.90;99.90;;;;;;6332024;22;20192;-94
2022/02/13 01:51:22;;;;;;;3.10;1.90;;;8.80;99.90;;;;;;6334560;22;20165;-95
2022/02/13 01:53:57;;;;;;;3.90;1.90;;;8.70;99.90;;;;;;6333472;22;20190;-93
2022/02/13 01:56:29;;;;;;;3.90;2.13;;;8.70;99.90;;;;;;6327658;22;20178;-94
2022/02/13 01:59:01;;;;;;;5.60;2.10;;;8.50;99.90;;;;;;6328854;22;20163;-94
2022/02/13 02:01:34;;;;;;;3.43;2.10;;;8.50;99.90;;;;;;6330151;22;20208;-94
2022/02/13 02:04:06;;;;;;;4.40;2.10;;;8.40;99.90;;;;;;6334464;22;20175;-90
2022/02/13 02:06:38;;;;;;;2.87;2.17;;;8.30;99.90;;;;;;6334756;22;20174;-96
2022/02/13 02:09:12;;;;;;;5.10;2.00;;;8.30;99.90;;;;;;6334407;22;20174;-94
2022/02/13 02:11:44;;;;;;;4.63;2.13;;;8.30;99.90;;;;;;6331091;22;20184;-94
2022/02/13 02:14:16;;;;;;;4.27;2.13;;;8.20;99.90;;;;;;6331739;22;20193;-92
2022/02/13 02:16:48;;;;;;;2.40;1.73;;;8.10;99.90;;;;;;6302434;22;20218;-93
2022/02/13 02:19:20;;;;;;;3.40;1.87;;;8.10;99.90;;;;;;6329149;22;20159;-94
2022/02/13 02:21:52;;;;;;;4.63;2.07;;;8.00;99.90;;;;;;6328172;22;20239;-94
2022/02/13 02:24:26;;;;;;;5.73;2.23;;;8.00;99.90;;;;;;6328750;22;20194;-94
2022/02/13 02:27:00;;;;;;;2.93;2.10;;;7.90;99.90;;;;;;6331459;22;20206;-93
2022/02/13 02:29:33;;;;;;;3.03;2.10;;;7.80;99.90;;;;;;6323516;22;20189;-94
2022/02/13 02:32:04;;;;;;;4.67;2.17;;;7.70;99.90;;;;;;6322300;22;20174;-93
2022/02/13 02:34:37;;;;;;;4.03;2.00;;;7.60;99.90;;;;;;6328537;22;20178;-94
2022/02/13 02:37:09;;;;;;;2.70;1.97;;;7.60;99.90;;;;;;6325996;22;20178;-94
2022/02/13 02:39:45;;;;;;;1.93;1.70;;;7.50;99.90;;;;;;6300432;22;20185;-94
2022/02/13 02:42:17;;;;;;;3.67;2.20;;;7.50;99.90;;;;;;6334183;22;20207;-93
2022/02/13 02:44:48;;;;;;;5.93;2.50;;;7.40;99.90;;;;;;6328367;22;20188;-94
2022/02/13 02:47:21;;;;;;;4.37;2.80;;;7.30;99.90;;;;;;6328283;22;20174;-92
2022/02/13 02:49:55;;;;;;;5.17;2.70;;;7.20;99.90;;;;;;6331538;22;20178;-94
2022/02/13 02:52:27;;;;;;;4.20;2.63;;;7.10;99.90;;;;;;6327840;22;20166;-94
2022/02/13 02:55:02;;;;;;;4.07;3.00;;;7.00;99.90;;;;;;6327565;22;20167;-94
2022/02/13 02:57:37;;;;;;;5.20;2.93;;;6.80;99.90;;;;;;6326202;22;20174;-92
2022/02/13 03:00:10;;;;;;;5.87;3.53;;;6.70;99.90;;;;;;6328603;22;20628;-93
2022/02/13 03:02:43;;;;;;;7.13;3.40;;;6.60;99.90;;;;;;6327637;22;20223;-93
2022/02/13 03:05:15;;;;;;;6.27;3.20;;;6.60;99.90;;;;;;6325978;22;20553;-91
2022/02/13 03:10:23;;;;;;;4.77;3.27;;;6.40;99.90;;;;;;6330436;22;20580;-93
2022/02/13 03:12:54;;;;;;;3.53;2.53;;;6.40;99.90;;;;;;6325980;22;20208;-93
2022/02/13 03:15:26;;;;;;;5.03;3.00;;;6.30;99.90;;;;;;6328181;22;20196;-94
2022/02/13 03:17:58;;;;;;;4.23;3.00;;;6.30;99.90;;;;;;6295734;22;20189;-94
2022/02/13 03:20:29;;;;;;;3.57;2.80;;;6.30;99.90;;;;;;6315438;22;20174;-93
2022/02/13 03:23:00;;;;;;;5.47;3.27;;;6.20;99.90;;;;;;6319659;22;20207;-94
2022/02/13 03:25:34;;;;;;;4.17;2.73;;;6.20;99.90;;;;;;6327924;22;20174;-93
2022/02/13 03:28:06;;;;;;;5.17;2.90;;;6.10;99.90;;;;;;6326633;22;20170;-93
2022/02/13 03:30:38;;;;;;;4.47;2.70;;;6.10;99.90;;;;;;6325433;22;20163;-94
2022/02/13 03:33:10;;;;;;;5.97;2.70;;;6.00;99.90;;;;;;6302622;22;20167;-94
2022/02/13 03:35:42;;;;;;;4.20;2.60;;;6.00;99.90;;;;;;6295937;22;20204;-92
2022/02/13 03:38:14;;;;;;;10.13;2.90;;;5.90;99.90;;;;;;6323758;22;20194;-92
2022/02/13 03:41:03;;;;;;;6.13;2.97;;;5.90;99.90;;;;;;6334113;22;20232;-93
2022/02/13 03:43:34;;;;;;;4.83;2.43;;;5.80;99.90;;;;;;6336430;22;20194;-94
2022/02/13 03:46:05;;;;;;;3.17;2.30;;;5.80;99.90;;;;;;6335777;22;20155;-93
2022/02/13 03:48:47;;;;;;;3.60;2.27;;;5.70;99.90;;;;;;6306510;22;20185;-93
2022/02/13 03:51:18;;;;;;;4.23;2.47;;;5.70;99.90;;;;;;6328975;22;20170;-94
2022/02/13 03:53:50;;;;;;;3.20;2.30;;;5.60;99.90;;;;;;6332329;22;20166;-93
2022/02/13 03:56:25;;;;;;;2.80;2.27;;;5.60;99.90;;;;;;6310478;22;20188;-93
2022/02/13 03:58:56;;;;;;;4.13;2.60;;;5.50;99.90;;;;;;6334066;22;20163;-94
2022/02/13 04:01:28;;;;;;;4.90;2.37;;;5.50;99.90;;;;;;6334264;22;20192;-94
2022/02/13 04:04:01;;;;;;;5.07;2.13;;;5.40;99.90;;;;;;6335028;22;20165;-93
2022/02/13 04:06:33;;;;;;;4.97;2.30;;;5.40;99.90;;;;;;6332830;22;20178;-92
2022/02/13 04:09:05;;;;;;;3.63;2.17;;;5.30;99.90;;;;;;6326758;22;20331;-89
2022/02/13 04:11:46;;;;;;;5.27;2.50;;;5.30;99.90;;;;;;6307411;22;20166;-92
2022/02/13 04:14:18;;;;;;;3.27;2.30;;;5.30;99.90;;;;;;6331875;22;20170;-92
2022/02/13 04:16:49;;;;;;;3.90;2.53;;;5.20;99.90;;;;;;6315184;22;20194;-92
2022/02/13 04:19:21;;;;;;;3.33;2.47;;;5.10;99.90;;;;;;6327421;22;20169;-93
2022/02/13 04:21:52;;;;;;;3.80;2.70;;;5.10;99.90;;;;;;6319485;22;20167;-93
2022/02/13 04:24:24;;;;;;;5.47;2.50;;;5.10;99.90;;;;;;6317270;22;20173;-93
2022/02/13 04:26:58;;;;;;;3.57;2.20;;;5.00;99.90;;;;;;6295520;22;20172;-94
2022/02/13 04:29:30;;;;;;;3.10;2.10;;;5.00;99.90;;;;;;6320283;22;20166;-94
2022/02/13 04:32:02;;;;;;;3.93;2.43;;;5.00;99.90;;;;;;6302199;22;20171;-93
2022/02/13 04:34:34;;;;;;;3.13;1.83;;;5.00;99.90;;;;;;6314398;22;20167;-93
2022/02/13 04:37:05;;;;;;;2.97;2.23;;;4.90;99.90;;;;;;6313569;22;20174;-93
2022/02/13 04:39:39;;;;;;;3.67;2.40;;;4.90;99.90;;;;;;6288287;22;20166;-94
2022/02/13 04:42:13;;;;;;;3.47;2.10;;;4.90;99.90;;;;;;6315428;22;20198;-94
2022/02/13 04:44:45;;;;;;;3.43;2.40;;;4.90;99.90;;;;;;6316154;22;20216;-93
2022/02/13 04:47:17;;;;;;;4.57;2.70;;;4.80;99.90;;;;;;6314766;22;20257;-93
2022/02/13 04:49:48;;;;;;;4.43;2.47;;;4.80;99.90;;;;;;6299392;22;20223;-93
2022/02/13 04:52:19;;;;;;;4.03;2.40;;;4.80;99.90;;;;;;6321246;22;20174;-94
2022/02/13 04:54:50;;;;;;;4.80;2.77;;;4.70;99.90;;;;;;6327947;22;20162;-93
2022/02/13 04:57:25;;;;;;;4.10;2.30;;;4.70;99.90;;;;;;6315080;22;20178;-93
2022/02/13 04:59:56;;;;;;;5.37;2.40;;;4.70;99.90;;;;;;6328830;22;20161;-93
2022/02/13 05:02:27;;;;;;;2.93;2.13;;;4.60;99.90;;;;;;6321085;22;20238;-93
2022/02/13 05:04:59;;;;;;;5.00;2.77;;;4.50;99.90;;;;;;6319005;22;20186;-93
2022/02/13 05:07:33;;;;;;;4.37;3.37;;;4.40;99.90;;;;;;6313921;22;20327;-93
2022/02/13 05:10:06;;;;;;;4.30;2.90;;;4.40;99.90;;;;;;6314872;22;20220;-93
2022/02/13 05:12:39;;;;;;;6.10;2.63;;;4.30;99.90;;;;;;6314974;22;20233;-92
2022/02/13 05:15:12;;;;;;;4.97;3.07;;;4.30;99.90;;;;;;6289690;22;20614;-92
2022/02/13 05:17:43;;;;;;;5.87;3.27;;;4.20;99.90;;;;;;6316233;22;20173;-94
2022/02/13 05:20:15;;;;;;;4.90;2.90;;;4.10;99.90;;;;;;6316604;22;20174;-93
2022/02/13 05:22:48;;;;;;;4.97;2.70;;;4.10;99.90;;;;;;6292343;22;20194;-93
2022/02/13 05:25:19;;;;;;;4.73;2.80;;;4.10;99.90;;;;;;6316058;22;20182;-93
2022/02/13 05:27:52;;;;;;;4.27;2.77;;;4.00;99.90;;;;;;6314989;22;20186;-93
2022/02/13 05:30:23;;;;;;;4.27;2.33;;;4.00;99.90;;;;;;6328467;22;20174;-93
2022/02/13 05:32:54;;;;;;;4.37;2.37;;;3.90;99.90;;;;;;6315270;22;20177;-92
2022/02/13 05:35:25;;;;;;;4.20;2.73;;;3.90;99.90;;;;;;6315823;22;20174;-94
2022/02/13 05:37:56;;;;;;;11.33;6.60;;;3.90;99.90;;;;;;6316419;22;20170;-92
2022/02/13 05:40:28;;;;;;;11.97;7.83;;;3.80;99.90;;;;;;6330515;22;20185;-93
2022/02/13 05:43:01;;;;;;;6.73;4.60;;;3.80;99.90;;;;;;6327206;22;20186;-92
2022/02/13 05:45:33;;;;;;;5.93;4.27;;;3.90;99.90;;;;;;6324670;22;20174;-93
2022/02/13 05:48:05;;;;;;;5.20;3.97;;;3.90;99.90;;;;;;6325670;22;20166;-92
2022/02/13 05:50:37;;;;;;;4.50;3.40;;;3.80;99.90;;;;;;6330436;22;20174;-93
2022/02/13 05:53:09;;;;;;;6.53;3.40;;;3.80;99.90;;;;;;6333425;22;20158;-93
2022/02/13 05:55:40;;;;;;;5.40;3.73;;;3.80;99.90;;;;;;6335586;22;20178;-93
2022/02/13 06:00:53;;;;;;;5.00;2.90;;;3.60;99.90;;;;;;6335095;22;20233;-91
2022/02/13 06:03:24;;;;;;;4.57;2.53;;;3.70;99.90;;;;;;6333021;22;20228;-92
2022/02/13 06:05:56;;;;;;;7.37;2.80;;;3.60;99.90;;;;;;6328303;22;20174;-92
2022/02/13 06:08:28;;;;;;;5.43;2.80;;;3.60;99.90;;;;;;6272753;22;20171;-92
2022/02/13 06:11:00;;;;;;;4.07;2.53;;;3.60;99.90;;;;;;6314722;22;20174;-94
2022/02/13 06:13:30;;;;;;;4.67;2.93;;;3.60;99.90;;;;;;6315859;22;20609;-92
2022/02/13 06:16:06;;;;;;;4.57;3.30;;;3.50;99.90;;;;;;6314092;22;20174;-93
2022/02/13 06:18:37;;;;;;;7.73;4.40;;;3.50;99.90;;;;;;6313506;22;20170;-93
2022/02/13 06:21:09;;;;;;;6.47;4.10;;;3.40;99.90;;;;;;6288418;22;20166;-92
2022/02/13 06:23:40;;;;;;;4.47;3.90;;;3.40;99.90;;;;;;6314874;22;20623;-93
2022/02/13 06:26:13;;;;;;;5.47;4.03;;;3.40;99.90;;;;;;6315763;22;20174;-93
2022/02/13 06:28:44;;;;;;;7.53;4.60;;;3.40;99.90;;;;;;6314061;22;20174;-94
2022/02/13 06:31:19;;;;;;;7.77;4.07;;;3.30;99.90;;;;;;6316921;22;20245;-93
2022/02/13 06:33:50;;;;;;;6.10;4.40;;;3.30;99.90;;;;;;6315178;22;20174;-94
2022/02/13 06:36:21;;;;;;;6.07;4.33;;;3.30;99.90;;;;;;6317321;22;20170;-93
2022/02/13 06:38:53;;;;;;;8.07;4.20;;;3.30;99.90;;;;;;6315959;22;20163;-93
2022/02/13 06:41:24;;;;;;;5.83;3.30;;;3.30;99.90;;;;;;6314310;22;20209;-92
2022/02/13 06:43:56;;;;;;;4.50;3.20;;;3.30;99.90;;;;;;6314644;22;20222;-93
2022/02/13 06:46:30;;;;;;;8.40;3.80;;;3.20;99.90;;;;;;6315129;22;20175;-93
2022/02/13 06:49:02;;;;;;;5.47;2.83;;;3.30;99.90;;;;;;6288550;22;20166;-92
2022/02/13 06:51:32;;;;;;;5.53;3.80;;;3.20;99.90;;;;;;6324083;22;20167;-91
2022/02/13 06:54:05;;;;;;;3.73;3.33;;;3.20;99.90;;;;;;6317774;22;20506;-91
2022/02/13 06:56:36;;;;;;;6.97;3.83;;;3.20;99.90;;;;;;6289079;22;20174;-93
2022/02/13 06:59:07;;;;;;;7.80;3.47;;;3.10;99.90;;;;;;6328416;22;20201;-91
2022/02/13 07:01:42;;;;;;;5.20;3.73;;;3.00;99.90;;;;;;6334006;22;20170;-94
2022/02/13 07:04:14;;;;;;;5.87;3.77;;;3.00;99.90;;;;;;6337706;22;20209;-89
2022/02/13 07:06:45;;;;;;;4.63;3.40;;;3.00;99.90;;;;;;6364821;22;20180;-95
2022/02/13 07:09:17;;;;;;;7.07;3.63;;;3.00;99.90;;;;;;6365414;22;20162;-93
2022/02/13 07:11:48;;;;;;;6.33;3.20;;;3.00;99.90;;;;;;6365367;22;20161;-93
2022/02/13 07:14:19;;;;;;;4.77;3.03;;;3.00;99.90;;;;;;6337746;22;20190;-93
2022/02/13 07:16:54;;;;;;;4.83;2.90;;;2.90;99.90;;;;;;6363180;22;20248;-94
2022/02/13 07:19:25;;;;;;;7.17;2.73;;;2.90;99.90;;;;;;6364586;22;20165;-94
2022/02/13 07:21:56;;;;;;;4.63;2.40;;;2.80;99.90;;;;;;6355713;22;20199;-93
2022/02/13 07:24:29;;;;;;;4.30;2.47;;;2.80;99.90;;;;;;6324032;22;20197;-93
2022/02/13 07:27:00;;;;;;;5.53;2.43;;;2.70;99.90;;;;;;6352439;22;20185;-94
2022/02/13 07:29:33;;;;;;;6.70;3.10;;;2.70;99.90;;;;;;6351882;22;20181;-93
2022/02/13 07:32:08;;;;;;;5.80;3.10;;;2.70;99.90;;;;;;6353360;22;20177;-93
2022/02/13 07:34:39;;;;;;;4.90;3.10;;;2.60;99.90;;;;;;6354074;22;20277;-93
2022/02/13 07:37:15;;;;;;;4.33;2.77;;;2.60;99.90;;;;;;6350667;22;20177;-93
2022/02/13 07:39:50;;;;;;;5.53;2.37;;;2.50;99.90;;;;;;6350240;22;20663;-92
2022/02/13 07:42:21;;;;;;;3.30;2.30;;;2.50;99.90;;;;;;6351715;22;20176;-93
2022/02/13 07:44:52;;;;;;;5.87;2.50;;;2.50;99.90;;;;;;6349971;22;20198;-93
2022/02/13 07:47:27;;;;;;;3.30;2.70;;;2.50;99.90;;;;;;6348121;22;20189;-93
2022/02/13 07:50:01;;;;;;;3.33;2.60;;;2.50;99.90;;;;;;6351578;22;20472;-93
2022/02/13 07:52:33;;;;;;;4.37;2.50;;;2.40;99.90;;;;;;6348035;22;20165;-93
2022/02/13 07:55:06;;;;;;;6.30;3.43;;;2.50;99.90;;;;;;6320622;22;20188;-93
2022/02/13 07:57:37;;;;;;;3.60;2.53;;;2.50;99.90;;;;;;6346682;22;20178;-93
2022/02/13 08:00:09;;;;;;;3.47;2.70;;;2.40;99.90;;;;;;6347930;22;20192;-93
2022/02/13 08:02:43;;;;;;;4.93;2.67;;;2.40;99.90;;;;;;6349995;22;20195;-92
2022/02/13 08:05:16;;;;;;;3.07;2.77;;;2.30;99.90;;;;;;6350464;22;20201;-94
2022/02/13 08:07:48;;;;;;;5.23;3.07;;;2.30;99.90;;;;;;6361223;22;20176;-92
2022/02/13 08:10:20;;;;;;;3.83;2.83;;;2.30;99.90;;;;;;6338786;22;20161;-92
2022/02/13 08:12:51;;;;;;;5.17;3.13;;;2.30;99.90;;;;;;6364914;22;20174;-93
2022/02/13 08:15:23;;;;;;;6.13;3.17;;;2.30;99.90;;;;;;6340223;22;20162;-94
2022/02/13 08:17:56;;;;;;;4.37;2.60;;;2.30;99.90;;;;;;6358159;22;20166;-94
2022/02/13 08:20:27;;;;;;;4.33;2.50;;;2.20;99.90;;;;;;6360065;22;20218;-93
2022/02/13 08:22:58;;;;;;;3.87;2.63;;;2.30;99.90;;;;;;6360566;22;20174;-94
2022/02/13 08:25:29;;;;;;;7.47;2.93;;;2.30;99.90;;;;;;6352485;22;20201;-93
2022/02/13 08:28:02;;;;;;;7.00;3.00;;;2.20;99.90;;;;;;6321237;22;20180;-94
2022/02/13 08:30:36;;;;;;;3.37;2.70;;;2.20;99.90;;;;;;6349042;22;20162;-94
2022/02/13 08:33:09;;;;;;;5.20;2.80;;;2.20;99.90;;;;;;6353250;22;20174;-93
2022/02/13 08:35:41;;;;;;;4.50;2.87;;;2.20;99.90;;;;;;6345909;22;20170;-93
2022/02/13 08:38:13;;;;;;;5.20;2.80;;;2.20;99.90;;;;;;6346307;22;20215;-92
2022/02/13 08:40:44;;;;;;;4.70;2.33;;;2.10;99.90;;;;;;6345443;22;20519;-92
2022/02/13 08:43:16;;;;;;;4.57;2.43;;;2.10;99.90;;;;;;6347209;22;20182;-94
2022/02/13 08:45:50;;;;;;;4.97;2.60;;;2.10;99.90;;;;;;6347629;22;20238;-93
2022/02/13 08:48:23;;;;;;;4.27;2.57;;;2.10;99.90;;;;;;6345912;22;20166;-94
2022/02/13 08:50:55;;;;;;;4.57;2.77;;;2.00;99.90;;;;;;6346631;22;20616;-94
2022/02/13 08:53:26;;;;;;;3.50;2.30;;;2.00;99.90;;;;;;6346275;22;20170;-93
2022/02/13 08:56:00;;;;;;;3.17;2.43;;;2.00;99.90;;;;;;6360481;22;20234;-92
2022/02/13 08:58:31;;;;;;;5.70;3.10;;;2.00;99.90;;;;;;6355227;22;20170;-93
2022/02/13 09:01:02;;;;;;;4.30;2.50;;;2.00;99.90;;;;;;6355133;22;20176;-93
2022/02/13 09:03:35;;;;;;;4.37;2.50;;;1.90;99.90;;;;;;6354110;22;20177;-93
2022/02/13 09:06:07;;;;;;;3.40;2.40;;;1.90;99.90;;;;;;6352385;22;20213;-93
2022/02/13 09:08:38;;;;;;;7.00;3.00;;;1.90;99.90;;;;;;6346570;22;20166;-93
2022/02/13 09:11:10;;;;;;;5.57;2.83;;;1.80;99.90;;;;;;6345668;22;20219;-93
2022/02/13 09:13:42;;;;;;;4.00;2.63;;;1.80;99.90;;;;;;6346355;22;20193;-92
2022/02/13 09:16:14;;;;;;;5.13;2.90;;;1.80;99.90;;;;;;6346036;22;20659;-94
2022/02/13 09:18:47;;;;;;;4.80;2.90;;;1.80;99.90;;;;;;6346062;22;20177;-94
2022/02/13 09:21:24;;;;;;;4.13;2.90;;;1.80;99.90;;;;;;6346269;22;20166;-93
2022/02/13 09:23:57;;;;;;;4.27;2.90;;;1.80;99.90;;;;;;6345968;22;20200;-93
2022/02/13 09:26:28;;;;;;;4.37;2.80;;;1.70;99.90;;;;;;6346193;22;20201;-93
2022/02/13 09:29:00;;;;;;;4.13;2.90;;;1.80;99.90;;;;;;6348102;22;20217;-92
2022/02/13 09:31:31;;;;;;;8.07;2.83;;;1.70;99.90;;;;;;6353123;22;20276;-92
2022/02/13 09:34:05;;;;;;;6.23;2.80;;;1.70;99.90;;;;;;6362000;22;20164;-90
2022/02/13 09:36:36;;;;;;;4.27;3.13;;;1.70;99.90;;;;;;6364745;22;20169;-94
2022/02/13 09:39:08;;;;;;;3.97;2.60;;;1.80;99.90;;;;;;6365646;22;20173;-93
2022/02/13 09:41:41;;;;;;;3.63;2.60;;;1.80;99.90;;;;;;6361952;22;20274;-92
2022/02/13 09:44:14;;;;;;;6.50;2.93;;;1.80;99.90;;;;;;6360906;22;20166;-92
2022/02/13 09:46:45;;;;;;;6.10;3.47;;;1.70;99.90;;;;;;6358035;22;20189;-93
2022/02/13 09:49:22;;;;;;;3.73;3.30;;;1.80;99.90;;;;;;6333128;22;20616;-93
2022/02/13 09:51:53;;;;;;;5.43;3.13;;;1.80;99.90;;;;;;6352846;22;20226;-93
2022/02/13 09:54:24;;;;;;;4.73;3.17;;;1.80;99.90;;;;;;6346145;22;20604;-92
2022/02/13 09:57:59;;;;;;;5.27;3.50;;;1.80;99.90;;;;;;6344796;22;20170;-91
2022/02/13 09:59:57;;;;;;;5.53;3.10;;;1.80;99.90;;;;;;6343662;22;20627;-93
2022/02/13 10:02:39;;;;;;;6.43;2.70;;;1.80;99.90;;;;;;6344887;22;20166;-93
2022/02/13 10:05:31;;;;;;;3.93;2.53;;;1.80;99.90;;;;;;6345640;22;20205;-93
2022/02/13 10:08:03;;;;;;;6.97;3.23;;;1.70;99.90;;;;;;6344215;22;20173;-93
2022/02/13 10:10:35;;;;;;;5.87;2.50;;;1.70;99.90;;;;;;6344640;22;20166;-93
2022/02/13 10:13:06;;;;;;;6.47;2.67;;;1.70;99.90;;;;;;6345066;22;20168;-95
2022/02/13 10:15:38;;;;;;;3.57;2.77;;;1.70;99.90;;;;;;6344733;22;20180;-94
2022/02/13 10:18:11;;;;;;;7.20;4.20;;;1.70;99.90;;;;;;6344892;22;20174;-94
2022/02/13 10:20:45;;;;;;;9.17;3.07;;;1.70;99.90;;;;;;6321304;22;20162;-93
2022/02/13 10:23:18;;;;;;;3.83;3.00;;;1.60;99.90;;;;;;6352684;22;20174;-92
2022/02/13 10:25:50;;;;;;;4.70;2.77;;;1.60;99.90;;;;;;6339649;22;20178;-94
2022/02/13 10:28:21;;;;;;;7.80;3.83;;;1.60;99.90;;;;;;6339308;22;20158;-94
2022/02/13 10:30:52;;;;;;;6.07;3.30;;;1.60;99.90;;;;;;6363035;22;20264;-94
2022/02/13 10:33:24;;;;;;;8.20;3.60;;;1.50;99.90;;;;;;6362645;22;20189;-95
2022/02/13 10:36:13;;;;;;;5.20;3.10;;;1.50;99.90;;;;;;6348704;22;20165;-94
2022/02/13 10:38:46;;;;;;;5.27;3.53;;;1.40;99.90;;;;;;6319501;22;20204;-93
2022/02/13 10:41:22;;;;;;;6.90;3.70;;;1.40;99.90;;;;;;6345328;22;20247;-95
2022/02/13 10:43:58;;;;;;;6.57;3.47;;;1.30;99.90;;;;;;6319050;22;20161;-93
2022/02/13 10:46:33;;;;;;;4.40;2.73;;;1.30;99.90;;;;;;6347847;22;20200;-93
2022/02/13 10:49:04;;;;;;;5.23;3.73;;;1.30;99.90;;;;;;6344947;22;20556;-93
2022/02/13 10:51:38;;;;;;;4.90;3.80;;;1.30;99.90;;;;;;6345039;22;20195;-90
2022/02/13 10:54:09;;;;;;;6.57;3.60;;;1.20;99.90;;;;;;6344580;22;20169;-93
2022/02/13 10:56:41;;;;;;;7.57;3.10;;;1.20;99.90;;;;;;6344234;22;20197;-95
2022/02/13 10:59:18;;;;;;;4.30;3.03;;;1.20;99.90;;;;;;6321179;22;20166;-92
2022/02/13 11:01:50;;;;;;;6.63;2.77;;;1.20;99.90;;;;;;6345774;22;20197;-92
2022/02/13 11:04:24;;;;;;;4.83;2.70;;;1.20;99.90;;;;;;6346517;22;20185;-94
2022/02/13 11:06:57;;;;;;;4.00;2.80;;;1.20;99.90;;;;;;6343619;22;20209;-93
2022/02/13 11:09:31;;;;;;;6.70;3.33;;;1.10;99.90;;;;;;6345066;22;20181;-94
2022/02/13 11:12:04;;;;;;;7.23;3.37;;;1.10;99.90;;;;;;6344567;22;20256;-93
2022/02/13 11:14:40;;;;;;;6.00;3.17;;;1.10;99.90;;;;;;6345012;22;20192;-93
2022/02/13 11:17:12;;;;;;;4.87;3.10;;;1.10;99.90;;;;;;6343973;22;20205;-94
2022/02/13 11:19:46;;;;;;;5.63;2.93;;;1.10;99.90;;;;;;6321543;22;20161;-94
2022/02/13 11:22:20;;;;;;;4.93;2.60;;;1.10;99.90;;;;;;6344963;22;20170;-94
2022/02/13 11:24:54;;;;;;;5.20;3.13;;;1.10;99.90;;;;;;6345120;22;20227;-95
2022/02/13 11:27:25;;;;;;;5.60;2.60;;;1.10;99.90;;;;;;6344253;22;20271;-93
2022/02/13 11:30:03;;;;;;;5.03;3.30;;;1.10;99.90;;;;;;6345902;22;20166;-93
2022/02/13 11:32:36;;;;;;;4.57;3.00;;;1.00;99.90;;;;;;6345502;22;20193;-92
2022/02/13 11:35:10;;;;;;;6.03;3.23;;;1.00;99.90;;;;;;6345974;22;20196;-94
2022/02/13 11:37:49;;;;;;;4.07;2.90;;;0.90;99.90;;;;;;6347787;22;20178;-93
2022/02/13 11:40:51;;;;;;;6.03;3.50;;;0.90;99.90;;;;;;6351425;22;20180;-95
2022/02/13 11:44:04;;;;;;;5.37;3.20;;;0.90;99.90;;;;;;6345628;22;20500;-95
2022/02/13 11:47:00;;;;;;;6.97;2.73;;;0.90;99.90;;;;;;6315326;22;20232;-94
2022/02/13 11:49:31;;;;;;;4.30;2.87;;;0.90;99.90;;;;;;6346573;22;20170;-94
2022/02/13 11:52:02;;;;;;;4.47;2.80;;;0.80;99.90;;;;;;6349439;22;20181;-94
2022/02/13 11:54:58;;;;;;;4.43;2.70;;;0.80;99.90;;;;;;6366247;22;20166;-93
2022/02/13 11:57:32;;;;;;;4.90;3.17;;;0.70;99.90;;;;;;6365880;22;20162;-93
2022/02/13 12:00:10;;;;;;;6.27;3.00;;;0.70;99.90;;;;;;6357129;22;20174;-94
2022/02/13 12:02:49;;;;;;;6.50;3.27;;;0.80;99.90;;;;;;6350552;22;20177;-93
2022/02/13 12:05:24;;;;;;;5.63;3.03;;;0.70;99.90;;;;;;6346009;22;20247;-94
2022/02/13 12:07:58;;;;;;;8.57;3.00;;;0.70;99.90;;;;;;6344159;22;20220;-94
2022/02/13 12:10:36;;;;;;;4.40;2.87;;;0.70;99.90;;;;;;6346144;22;20166;-93
2022/02/13 12:13:09;;;;;;;5.23;2.80;;;0.70;99.90;;;;;;6345130;22;20173;-93
2022/02/13 12:15:42;;;;;;;5.57;3.43;;;0.70;99.90;;;;;;6346078;22;20169;-93
2022/02/13 12:18:15;;;;;;;5.77;2.73;;;0.70;99.90;;;;;;6344505;22;20185;-93
2022/02/13 12:20:48;;;;;;;7.27;3.13;;;0.70;99.90;;;;;;6351771;22;20174;-94
2022/02/13 12:23:20;;;;;;;6.37;2.80;;;0.60;99.90;;;;;;6318368;22;20162;-95
2022/02/13 12:25:54;;;;;;;6.77;3.00;;;0.50;99.90;;;;;;6345369;22;20295;-94
2022/02/13 12:28:33;;;;;;;5.53;2.60;;;0.50;99.90;;;;;;6344424;22;20484;-94
2022/02/13 12:31:06;;;;;;;5.77;3.00;;;0.50;99.90;;;;;;6344443;22;20181;-95
2022/02/13 12:33:49;;;;;;;3.60;2.80;;;0.50;99.90;;;;;;6344632;22;20173;-95
2022/02/13 12:36:25;;;;;;;4.73;2.70;;;0.50;99.90;;;;;;6345734;22;20233;-94
2022/02/13 12:38:57;;;;;;;4.60;2.83;;;0.50;99.90;;;;;;6344738;22;20509;-95
2022/02/13 12:41:30;;;;;;;5.37;2.83;;;0.50;99.90;;;;;;6346784;22;20215;-93
2022/02/13 12:44:02;;;;;;;5.03;3.10;;;0.50;99.90;;;;;;6358234;22;20158;-94
2022/02/13 12:46:34;;;;;;;6.53;2.70;;;0.50;99.90;;;;;;6365548;22;20201;-93
2022/02/13 12:49:06;;;;;;;4.60;2.67;;;0.50;99.90;;;;;;6364888;22;20164;-94
2022/02/13 12:51:38;;;;;;;8.23;2.87;;;0.50;99.90;;;;;;6354962;22;20165;-95
2022/02/13 12:54:09;;;;;;;6.57;3.17;;;0.50;99.90;;;;;;6356990;22;20196;-94
2022/02/13 12:56:43;;;;;;;3.83;2.30;;;0.50;99.90;;;;;;6348978;22;20426;-92
2022/02/13 12:59:15;;;;;;;5.23;2.90;;;0.50;99.90;;;;;;6348702;22;20173;-93
2022/02/13 13:01:47;;;;;;;6.77;3.27;;;0.50;99.90;;;;;;6318250;22;20189;-94
2022/02/13 13:04:27;;;;;;;5.23;3.00;;;0.50;99.90;;;;;;6344455;22;20203;-93
2022/02/13 13:06:58;;;;;;;3.70;2.63;;;0.50;99.90;;;;;;6344267;22;20204;-94
2022/02/13 13:09:33;;;;;;;5.37;2.90;;;0.50;99.90;;;;;;6344587;22;20647;-93
2022/02/13 13:12:16;;;;;;;7.50;3.27;;;0.50;99.90;;;;;;6349814;22;20185;-94
2022/02/13 13:14:57;;;;;;;6.07;2.73;;;0.50;99.90;;;;;;6342663;22;20162;-95
2022/02/13 13:17:40;;;;;;;5.03;2.60;;;0.40;99.90;;;;;;6344664;22;20184;-96
2022/02/13 13:20:23;;;;;;;5.43;3.10;;;0.40;99.90;;;;;;6345189;22;20170;-95
2022/02/13 13:23:17;;;;;;;4.13;2.77;;;0.40;99.90;;;;;;6348838;22;20165;-93
2022/02/13 13:25:51;;;;;;;5.40;3.00;;;0.40;99.90;;;;;;6343422;22;20512;-96
2022/02/13 13:28:31;;;;;;;5.90;3.27;;;0.40;99.90;;;;;;6345686;22;20189;-94
2022/02/13 13:31:08;;;;;;;5.47;3.07;;;0.40;99.90;;;;;;6348302;22;20214;-95
2022/02/13 13:33:39;;;;;;;6.27;3.50;;;0.40;99.90;;;;;;6345406;22;20191;-93